Briefing drone pour Lorette

Rechercher une autre localisation

Conditions de vol :


Nous sommes le : Jeudi 24 juin 2021
Il est 00:02 UTC (02:02 LT)

Lever de soleil : 03:27 UTC (05:27 LT)
Coucher de soleil : 20:00 UTC (22:00 LT)

Météo

L'essentiel des conditions de vol

VIGILANCE MÉTÉO FRANCE - Loire (42)
Vigilance Jaune : Orages / Pluie-inondation
CARTE TEMSI
CARTES DES FRONTS
METAR de LFMH
LFMH 232330Z AUTO 15003KT 9999 FEW028 BKN056 13/12 Q1019

Date d'émission: 23/06/2021
Heure d'émission: 23:30 UTC
Vent: 150° pour 3 KT (6 km/h)
Visibilité horizontale: > 10 km
Plafond :
- Peu de nuages à 2800ft (853m)
- Nuages morcelés à 5600ft (1707m)
Température: 13 °C
Point de rosée: 12 °C
Humidité: 94%
Pression (QNH): 1019 hPa
TAF de LFMH
LFMH 161901Z 1619/1712 CNL

Conditions prévues :

Heure d'émission : Bulletin éffectué le 16 à 19:00 UTC
Prévision : Valide du 16 a 19:00 UTC au 17 a 12:00 UTC
Nuages : à 0ft (0 m)
WEBCAM POUR LORETTE

Réglementation

Voler en sécurité

CARTES AERONAUTIQUE 1/500.000
CARTES VAC (LFMH)
SUP AIP




Chargement des AIP...
NOTAM (LORETTE + Terrain à proximité / FIR )




Chargement des NOTAMS...
CONTACT PREFECTURE 42


Avertissement : Les données mises à disposition sont indicatives. Oxygène Drone ne pourra être tenu responsable de dégâts causés aux biens et aux personnes.